ěÝzenÝ letovÚho provozu ╚eskÚ republiky
Letiste: LKKB Aktualizace: 29.07.2021 12:27:28  UTC
 METAR LKKB 29.07. 12:30 ...
METAR LKKB 291230Z 22015KT CAVOK 25/12 Q1013 NOSIG RMK BLU BLU=
 TAF LKKB 29.07. 11:00 ...
TAF LKKB 291100Z 2912/3012 24014KT CAVOK      TEMPO 2912/2918 26022KT      BECMG 2918/2920 22005KT=